sensor_id;sensor_type;location;lat;lon;timestamp;P1;durP1;ratioP1;P2;durP2;ratioP2
62707;SDS011;48769;51.624;5.886;2022-11-20T00:00:42;30.30;;;17.30;;
62707;SDS011;48769;51.624;5.886;2022-11-20T00:03:08;30.40;;;18.08;;
62707;SDS011;48769;51.624;5.886;2022-11-20T00:05:33;34.05;;;19.38;;
62707;SDS011;48769;51.624;5.886;2022-11-20T00:07:59;35.28;;;20.60;;
62707;SDS011;48769;51.624;5.886;2022-11-20T00:10:24;35.13;;;20.35;;
62707;SDS011;48769;51.624;5.886;2022-11-20T00:12:49;39.13;;;19.58;;
62707;SDS011;48769;51.624;5.886;2022-11-20T00:15:15;35.08;;;20.05;;
62707;SDS011;48769;51.624;5.886;2022-11-20T00:17:40;32.30;;;18.55;;
62707;SDS011;48769;51.624;5.886;2022-11-20T00:20:05;35.28;;;20.30;;
62707;SDS011;48769;51.624;5.886;2022-11-20T00:22:31;31.23;;;18.48;;
62707;SDS011;48769;51.624;5.886;2022-11-20T00:24:56;35.85;;;20.60;;
62707;SDS011;48769;51.624;5.886;2022-11-20T00:27:22;35.33;;;19.75;;
62707;SDS011;48769;51.624;5.886;2022-11-20T00:29:48;41.53;;;22.83;;
62707;SDS011;48769;51.624;5.886;2022-11-20T00:32:13;36.13;;;19.40;;
62707;SDS011;48769;51.624;5.886;2022-11-20T00:34:38;35.92;;;20.90;;
62707;SDS011;48769;51.624;5.886;2022-11-20T00:37:04;32.88;;;20.45;;
62707;SDS011;48769;51.624;5.886;2022-11-20T00:39:29;29.67;;;18.33;;
62707;SDS011;48769;51.624;5.886;2022-11-20T00:41:54;35.28;;;20.10;;
62707;SDS011;48769;51.624;5.886;2022-11-20T00:44:20;32.85;;;19.52;;
62707;SDS011;48769;51.624;5.886;2022-11-20T00:46:45;36.63;;;20.55;;
62707;SDS011;48769;51.624;5.886;2022-11-20T00:49:10;33.38;;;18.45;;
62707;SDS011;48769;51.624;5.886;2022-11-20T00:51:36;34.38;;;19.58;;
62707;SDS011;48769;51.624;5.886;2022-11-20T00:54:01;37.40;;;20.27;;
62707;SDS011;48769;51.624;5.886;2022-11-20T00:56:27;35.17;;;20.63;;
62707;SDS011;48769;51.624;5.886;2022-11-20T00:58:52;31.80;;;18.42;;
62707;SDS011;48769;51.624;5.886;2022-11-20T01:01:19;35.33;;;19.63;;
62707;SDS011;48769;51.624;5.886;2022-11-20T01:03:47;34.30;;;19.20;;
62707;SDS011;48769;51.624;5.886;2022-11-20T01:06:22;33.88;;;20.05;;
62707;SDS011;48769;51.624;5.886;2022-11-20T01:08:50;35.22;;;18.63;;
62707;SDS011;48769;51.624;5.886;2022-11-20T01:11:21;34.90;;;19.98;;
62707;SDS011;48769;51.624;5.886;2022-11-20T01:13:49;34.35;;;19.80;;
62707;SDS011;48769;51.624;5.886;2022-11-20T01:16:28;33.70;;;19.55;;
62707;SDS011;48769;51.624;5.886;2022-11-20T01:18:56;38.33;;;20.10;;
62707;SDS011;48769;51.624;5.886;2022-11-20T01:21:28;34.03;;;20.25;;
62707;SDS011;48769;51.624;5.886;2022-11-20T01:23:58;30.85;;;18.23;;
62707;SDS011;48769;51.624;5.886;2022-11-20T01:26:25;31.60;;;19.08;;
62707;SDS011;48769;51.624;5.886;2022-11-20T01:28:52;38.53;;;19.67;;
62707;SDS011;48769;51.624;5.886;2022-11-20T01:31:28;35.72;;;20.17;;
62707;SDS011;48769;51.624;5.886;2022-11-20T01:33:56;37.63;;;21.42;;
62707;SDS011;48769;51.624;5.886;2022-11-20T01:36:23;35.03;;;19.83;;
62707;SDS011;48769;51.624;5.886;2022-11-20T01:38:54;36.30;;;20.20;;
62707;SDS011;48769;51.624;5.886;2022-11-20T01:41:21;36.60;;;21.27;;
62707;SDS011;48769;51.624;5.886;2022-11-20T01:44:07;39.20;;;21.13;;
62707;SDS011;48769;51.624;5.886;2022-11-20T01:46:35;33.95;;;19.55;;
62707;SDS011;48769;51.624;5.886;2022-11-20T01:49:08;33.22;;;19.60;;
62707;SDS011;48769;51.624;5.886;2022-11-20T01:51:42;35.92;;;20.85;;
62707;SDS011;48769;51.624;5.886;2022-11-20T01:54:17;32.60;;;20.23;;
62707;SDS011;48769;51.624;5.886;2022-11-20T01:56:59;32.72;;;20.15;;
62707;SDS011;48769;51.624;5.886;2022-11-20T01:59:25;36.63;;;19.92;;
62707;SDS011;48769;51.624;5.886;2022-11-20T02:01:53;33.00;;;19.63;;
62707;SDS011;48769;51.624;5.886;2022-11-20T02:04:18;34.83;;;20.50;;
62707;SDS011;48769;51.624;5.886;2022-11-20T02:06:46;36.08;;;20.42;;
62707;SDS011;48769;51.624;5.886;2022-11-20T02:09:33;35.03;;;19.67;;
62707;SDS011;48769;51.624;5.886;2022-11-20T02:11:58;34.10;;;20.80;;
62707;SDS011;48769;51.624;5.886;2022-11-20T02:14:24;36.55;;;20.17;;
62707;SDS011;48769;51.624;5.886;2022-11-20T02:16:50;40.28;;;20.98;;
62707;SDS011;48769;51.624;5.886;2022-11-20T02:19:22;33.30;;;20.70;;
62707;SDS011;48769;51.624;5.886;2022-11-20T02:24:29;41.10;;;21.67;;
62707;SDS011;48769;51.624;5.886;2022-11-20T02:29:33;41.67;;;20.10;;
62707;SDS011;48769;51.624;5.886;2022-11-20T02:32:03;39.78;;;21.65;;
62707;SDS011;48769;51.624;5.886;2022-11-20T02:34:28;41.17;;;21.55;;
62707;SDS011;48769;51.624;5.886;2022-11-20T02:36:54;34.95;;;20.17;;
62707;SDS011;48769;51.624;5.886;2022-11-20T02:39:21;35.08;;;19.65;;
62707;SDS011;48769;51.624;5.886;2022-11-20T02:41:50;38.55;;;21.13;;
62707;SDS011;48769;51.624;5.886;2022-11-20T02:44:18;35.67;;;20.30;;
62707;SDS011;48769;51.624;5.886;2022-11-20T02:46:44;35.30;;;20.90;;
62707;SDS011;48769;51.624;5.886;2022-11-20T02:49:10;40.70;;;20.70;;
62707;SDS011;48769;51.624;5.886;2022-11-20T02:51:35;39.33;;;22.08;;
62707;SDS011;48769;51.624;5.886;2022-11-20T02:54:00;40.10;;;21.75;;
62707;SDS011;48769;51.624;5.886;2022-11-20T02:56:26;38.85;;;21.63;;
62707;SDS011;48769;51.624;5.886;2022-11-20T02:58:52;38.65;;;21.10;;
62707;SDS011;48769;51.624;5.886;2022-11-20T03:01:17;37.33;;;20.90;;
62707;SDS011;48769;51.624;5.886;2022-11-20T03:03:42;39.83;;;21.58;;
62707;SDS011;48769;51.624;5.886;2022-11-20T03:06:08;37.17;;;20.60;;
62707;SDS011;48769;51.624;5.886;2022-11-20T03:08:33;44.63;;;22.77;;
62707;SDS011;48769;51.624;5.886;2022-11-20T03:11:02;40.38;;;22.27;;
62707;SDS011;48769;51.624;5.886;2022-11-20T03:13:32;36.90;;;20.67;;
62707;SDS011;48769;51.624;5.886;2022-11-20T03:15:58;40.08;;;21.80;;
62707;SDS011;48769;51.624;5.886;2022-11-20T03:18:23;36.15;;;20.67;;
62707;SDS011;48769;51.624;5.886;2022-11-20T03:20:48;37.28;;;20.30;;
62707;SDS011;48769;51.624;5.886;2022-11-20T03:23:14;38.83;;;21.48;;
62707;SDS011;48769;51.624;5.886;2022-11-20T03:25:39;43.42;;;22.05;;
62707;SDS011;48769;51.624;5.886;2022-11-20T03:28:04;38.03;;;20.23;;
62707;SDS011;48769;51.624;5.886;2022-11-20T03:30:30;38.75;;;20.80;;
62707;SDS011;48769;51.624;5.886;2022-11-20T03:32:55;39.42;;;22.33;;
62707;SDS011;48769;51.624;5.886;2022-11-20T03:35:20;41.85;;;20.75;;
62707;SDS011;48769;51.624;5.886;2022-11-20T03:37:46;39.63;;;20.73;;
62707;SDS011;48769;51.624;5.886;2022-11-20T03:40:11;39.50;;;21.90;;
62707;SDS011;48769;51.624;5.886;2022-11-20T03:42:37;40.28;;;21.90;;
62707;SDS011;48769;51.624;5.886;2022-11-20T03:45:15;41.65;;;22.80;;
62707;SDS011;48769;51.624;5.886;2022-11-20T03:47:42;40.70;;;22.25;;
62707;SDS011;48769;51.624;5.886;2022-11-20T03:50:09;40.47;;;22.02;;
62707;SDS011;48769;51.624;5.886;2022-11-20T03:52:35;38.85;;;21.13;;
62707;SDS011;48769;51.624;5.886;2022-11-20T03:55:00;41.38;;;23.48;;
62707;SDS011;48769;51.624;5.886;2022-11-20T03:57:26;42.33;;;21.98;;
62707;SDS011;48769;51.624;5.886;2022-11-20T03:59:51;40.65;;;21.80;;
62707;SDS011;48769;51.624;5.886;2022-11-20T04:02:16;38.88;;;21.30;;
62707;SDS011;48769;51.624;5.886;2022-11-20T04:04:41;40.50;;;22.23;;
62707;SDS011;48769;51.624;5.886;2022-11-20T04:07:07;40.22;;;21.58;;
62707;SDS011;48769;51.624;5.886;2022-11-20T04:09:32;40.53;;;21.92;;
62707;SDS011;48769;51.624;5.886;2022-11-20T04:11:57;40.97;;;21.73;;
62707;SDS011;48769;51.624;5.886;2022-11-20T04:14:23;35.85;;;20.33;;
62707;SDS011;48769;51.624;5.886;2022-11-20T04:16:48;40.10;;;21.90;;
62707;SDS011;48769;51.624;5.886;2022-11-20T04:19:14;36.25;;;20.40;;
62707;SDS011;48769;51.624;5.886;2022-11-20T04:21:41;40.28;;;20.70;;
62707;SDS011;48769;51.624;5.886;2022-11-20T04:24:07;39.45;;;20.85;;
62707;SDS011;48769;51.624;5.886;2022-11-20T04:26:33;37.40;;;22.80;;
62707;SDS011;48769;51.624;5.886;2022-11-20T04:28:59;36.53;;;20.13;;
62707;SDS011;48769;51.624;5.886;2022-11-20T04:31:31;38.45;;;20.92;;
62707;SDS011;48769;51.624;5.886;2022-11-20T04:33:59;39.97;;;22.05;;
62707;SDS011;48769;51.624;5.886;2022-11-20T04:36:26;39.33;;;21.98;;
62707;SDS011;48769;51.624;5.886;2022-11-20T04:39:12;38.33;;;20.15;;
62707;SDS011;48769;51.624;5.886;2022-11-20T04:41:40;32.53;;;20.30;;
62707;SDS011;48769;51.624;5.886;2022-11-20T04:44:06;43.85;;;22.27;;
62707;SDS011;48769;51.624;5.886;2022-11-20T04:46:33;38.83;;;21.17;;
62707;SDS011;48769;51.624;5.886;2022-11-20T04:49:04;38.28;;;19.85;;
62707;SDS011;48769;51.624;5.886;2022-11-20T04:51:30;34.53;;;19.85;;
62707;SDS011;48769;51.624;5.886;2022-11-20T04:53:55;36.70;;;19.95;;
62707;SDS011;48769;51.624;5.886;2022-11-20T04:56:21;40.22;;;21.15;;
62707;SDS011;48769;51.624;5.886;2022-11-20T04:58:46;37.53;;;19.67;;
62707;SDS011;48769;51.624;5.886;2022-11-20T05:01:16;42.17;;;21.23;;
62707;SDS011;48769;51.624;5.886;2022-11-20T05:03:45;37.75;;;20.88;;
62707;SDS011;48769;51.624;5.886;2022-11-20T05:06:11;49.90;;;23.42;;
62707;SDS011;48769;51.624;5.886;2022-11-20T05:08:38;41.80;;;22.65;;
62707;SDS011;48769;51.624;5.886;2022-11-20T05:11:04;41.05;;;22.17;;
62707;SDS011;48769;51.624;5.886;2022-11-20T05:13:35;46.80;;;22.05;;
62707;SDS011;48769;51.624;5.886;2022-11-20T05:16:05;39.72;;;21.75;;
62707;SDS011;48769;51.624;5.886;2022-11-20T05:18:32;44.60;;;22.70;;
62707;SDS011;48769;51.624;5.886;2022-11-20T05:20:59;37.17;;;21.17;;
62707;SDS011;48769;51.624;5.886;2022-11-20T05:23:24;42.40;;;21.95;;
62707;SDS011;48769;51.624;5.886;2022-11-20T05:25:53;39.55;;;22.02;;
62707;SDS011;48769;51.624;5.886;2022-11-20T05:28:20;41.03;;;21.83;;
62707;SDS011;48769;51.624;5.886;2022-11-20T05:30:46;42.83;;;22.90;;
62707;SDS011;48769;51.624;5.886;2022-11-20T05:33:12;36.30;;;20.65;;
62707;SDS011;48769;51.624;5.886;2022-11-20T05:35:37;46.95;;;23.83;;
62707;SDS011;48769;51.624;5.886;2022-11-20T05:38:02;39.20;;;20.67;;
62707;SDS011;48769;51.624;5.886;2022-11-20T05:40:28;38.80;;;21.23;;
62707;SDS011;48769;51.624;5.886;2022-11-20T05:42:53;38.60;;;20.70;;
62707;SDS011;48769;51.624;5.886;2022-11-20T05:45:18;37.63;;;22.23;;
62707;SDS011;48769;51.624;5.886;2022-11-20T05:47:44;37.13;;;21.10;;
62707;SDS011;48769;51.624;5.886;2022-11-20T05:50:09;40.25;;;21.92;;
62707;SDS011;48769;51.624;5.886;2022-11-20T05:52:34;39.03;;;21.38;;
62707;SDS011;48769;51.624;5.886;2022-11-20T05:54:59;38.30;;;21.13;;
62707;SDS011;48769;51.624;5.886;2022-11-20T05:57:25;39.05;;;21.45;;
62707;SDS011;48769;51.624;5.886;2022-11-20T05:59:50;46.38;;;21.45;;
62707;SDS011;48769;51.624;5.886;2022-11-20T06:02:15;40.70;;;21.33;;
62707;SDS011;48769;51.624;5.886;2022-11-20T06:04:41;45.05;;;22.05;;
62707;SDS011;48769;51.624;5.886;2022-11-20T06:07:06;37.90;;;21.10;;
62707;SDS011;48769;51.624;5.886;2022-11-20T06:09:32;41.95;;;22.60;;
62707;SDS011;48769;51.624;5.886;2022-11-20T06:11:58;39.83;;;21.48;;
62707;SDS011;48769;51.624;5.886;2022-11-20T06:14:24;38.33;;;21.48;;
62707;SDS011;48769;51.624;5.886;2022-11-20T06:16:49;37.20;;;20.58;;
62707;SDS011;48769;51.624;5.886;2022-11-20T06:19:14;38.25;;;21.33;;
62707;SDS011;48769;51.624;5.886;2022-11-20T06:21:40;37.70;;;20.83;;
62707;SDS011;48769;51.624;5.886;2022-11-20T06:24:05;36.90;;;20.27;;
62707;SDS011;48769;51.624;5.886;2022-11-20T06:26:31;38.63;;;20.92;;
62707;SDS011;48769;51.624;5.886;2022-11-20T06:28:57;42.15;;;21.92;;
62707;SDS011;48769;51.624;5.886;2022-11-20T06:31:23;39.80;;;21.88;;
62707;SDS011;48769;51.624;5.886;2022-11-20T06:33:51;36.92;;;21.17;;
62707;SDS011;48769;51.624;5.886;2022-11-20T06:36:18;49.58;;;21.13;;
62707;SDS011;48769;51.624;5.886;2022-11-20T06:38:45;39.65;;;23.17;;
62707;SDS011;48769;51.624;5.886;2022-11-20T06:41:12;39.47;;;21.27;;
62707;SDS011;48769;51.624;5.886;2022-11-20T06:43:40;36.88;;;22.73;;
62707;SDS011;48769;51.624;5.886;2022-11-20T06:46:05;42.20;;;23.67;;
62707;SDS011;48769;51.624;5.886;2022-11-20T06:48:31;41.67;;;22.27;;
62707;SDS011;48769;51.624;5.886;2022-11-20T06:50:57;38.95;;;22.27;;
62707;SDS011;48769;51.624;5.886;2022-11-20T06:53:22;39.60;;;21.33;;
62707;SDS011;48769;51.624;5.886;2022-11-20T06:55:49;40.35;;;23.23;;
62707;SDS011;48769;51.624;5.886;2022-11-20T06:58:15;44.15;;;24.15;;
62707;SDS011;48769;51.624;5.886;2022-11-20T07:00:41;42.40;;;24.02;;
62707;SDS011;48769;51.624;5.886;2022-11-20T07:03:08;45.45;;;23.52;;
62707;SDS011;48769;51.624;5.886;2022-11-20T07:05:35;43.65;;;24.48;;
62707;SDS011;48769;51.624;5.886;2022-11-20T07:08:00;44.47;;;24.00;;
62707;SDS011;48769;51.624;5.886;2022-11-20T07:10:26;47.67;;;25.20;;
62707;SDS011;48769;51.624;5.886;2022-11-20T07:12:52;46.08;;;23.88;;
62707;SDS011;48769;51.624;5.886;2022-11-20T07:15:18;41.13;;;21.90;;
62707;SDS011;48769;51.624;5.886;2022-11-20T07:17:44;42.28;;;22.95;;
62707;SDS011;48769;51.624;5.886;2022-11-20T07:20:09;41.10;;;22.75;;
62707;SDS011;48769;51.624;5.886;2022-11-20T07:22:35;37.60;;;21.52;;
62707;SDS011;48769;51.624;5.886;2022-11-20T07:25:01;42.50;;;21.80;;
62707;SDS011;48769;51.624;5.886;2022-11-20T07:27:27;37.15;;;20.38;;
62707;SDS011;48769;51.624;5.886;2022-11-20T07:29:52;38.35;;;21.08;;
62707;SDS011;48769;51.624;5.886;2022-11-20T07:32:18;41.47;;;21.17;;
62707;SDS011;48769;51.624;5.886;2022-11-20T07:34:43;37.45;;;20.25;;
62707;SDS011;48769;51.624;5.886;2022-11-20T07:37:08;36.75;;;20.35;;
62707;SDS011;48769;51.624;5.886;2022-11-20T07:39:34;42.95;;;22.13;;
62707;SDS011;48769;51.624;5.886;2022-11-20T07:41:59;40.03;;;21.75;;
62707;SDS011;48769;51.624;5.886;2022-11-20T07:44:24;39.70;;;21.77;;
62707;SDS011;48769;51.624;5.886;2022-11-20T07:46:50;39.78;;;21.75;;
62707;SDS011;48769;51.624;5.886;2022-11-20T07:49:15;40.33;;;22.80;;
62707;SDS011;48769;51.624;5.886;2022-11-20T07:51:40;46.28;;;24.27;;
62707;SDS011;48769;51.624;5.886;2022-11-20T07:54:05;43.90;;;23.42;;
62707;SDS011;48769;51.624;5.886;2022-11-20T07:56:31;42.83;;;23.42;;
62707;SDS011;48769;51.624;5.886;2022-11-20T07:58:56;48.63;;;24.13;;
62707;SDS011;48769;51.624;5.886;2022-11-20T08:01:21;46.30;;;25.17;;
62707;SDS011;48769;51.624;5.886;2022-11-20T08:03:47;43.38;;;24.70;;
62707;SDS011;48769;51.624;5.886;2022-11-20T08:06:12;45.38;;;25.38;;
62707;SDS011;48769;51.624;5.886;2022-11-20T08:08:38;46.75;;;25.50;;
62707;SDS011;48769;51.624;5.886;2022-11-20T08:11:04;42.15;;;24.45;;
62707;SDS011;48769;51.624;5.886;2022-11-20T08:13:48;46.08;;;25.45;;
62707;SDS011;48769;51.624;5.886;2022-11-20T08:16:32;47.30;;;25.85;;
62707;SDS011;48769;51.624;5.886;2022-11-20T08:18:57;44.92;;;25.98;;
62707;SDS011;48769;51.624;5.886;2022-11-20T08:21:23;46.00;;;25.48;;
62707;SDS011;48769;51.624;5.886;2022-11-20T08:23:49;46.90;;;27.10;;
62707;SDS011;48769;51.624;5.886;2022-11-20T08:26:14;46.40;;;25.70;;
62707;SDS011;48769;51.624;5.886;2022-11-20T08:28:39;47.25;;;26.48;;
62707;SDS011;48769;51.624;5.886;2022-11-20T08:31:05;44.40;;;25.98;;
62707;SDS011;48769;51.624;5.886;2022-11-20T08:33:30;49.63;;;28.27;;
62707;SDS011;48769;51.624;5.886;2022-11-20T08:36:04;47.45;;;26.88;;
62707;SDS011;48769;51.624;5.886;2022-11-20T08:40:59;52.42;;;28.30;;
62707;SDS011;48769;51.624;5.886;2022-11-20T08:43:44;53.38;;;28.45;;
62707;SDS011;48769;51.624;5.886;2022-11-20T08:46:09;50.60;;;27.42;;
62707;SDS011;48769;51.624;5.886;2022-11-20T08:48:35;49.85;;;28.90;;
62707;SDS011;48769;51.624;5.886;2022-11-20T08:51:00;51.83;;;29.80;;
62707;SDS011;48769;51.624;5.886;2022-11-20T08:53:26;50.03;;;30.27;;
62707;SDS011;48769;51.624;5.886;2022-11-20T08:55:52;52.00;;;30.73;;
62707;SDS011;48769;51.624;5.886;2022-11-20T08:58:17;55.70;;;29.48;;
62707;SDS011;48769;51.624;5.886;2022-11-20T09:00:43;52.58;;;29.23;;
62707;SDS011;48769;51.624;5.886;2022-11-20T09:03:08;59.47;;;33.20;;
62707;SDS011;48769;51.624;5.886;2022-11-20T09:05:34;58.35;;;30.77;;
62707;SDS011;48769;51.624;5.886;2022-11-20T09:07:59;54.17;;;31.60;;
62707;SDS011;48769;51.624;5.886;2022-11-20T09:10:25;52.90;;;31.35;;
62707;SDS011;48769;51.624;5.886;2022-11-20T09:16:00;53.20;;;31.52;;
62707;SDS011;48769;51.624;5.886;2022-11-20T09:18:27;53.72;;;32.67;;
62707;SDS011;48769;51.624;5.886;2022-11-20T09:21:00;54.13;;;31.42;;
62707;SDS011;48769;51.624;5.886;2022-11-20T09:23:27;57.65;;;33.28;;
62707;SDS011;48769;51.624;5.886;2022-11-20T09:25:56;53.08;;;32.90;;
62707;SDS011;48769;51.624;5.886;2022-11-20T09:28:24;55.83;;;32.25;;
62707;SDS011;48769;51.624;5.886;2022-11-20T09:30:50;51.75;;;31.20;;
62707;SDS011;48769;51.624;5.886;2022-11-20T09:33:15;54.15;;;32.08;;
62707;SDS011;48769;51.624;5.886;2022-11-20T09:35:41;53.50;;;32.45;;
62707;SDS011;48769;51.624;5.886;2022-11-20T09:38:08;55.83;;;32.17;;
62707;SDS011;48769;51.624;5.886;2022-11-20T09:40:35;54.15;;;33.03;;
62707;SDS011;48769;51.624;5.886;2022-11-20T09:56:47;58.22;;;34.85;;
62707;SDS011;48769;51.624;5.886;2022-11-20T10:04:51;55.53;;;33.10;;
62707;SDS011;48769;51.624;5.886;2022-11-20T10:07:39;56.92;;;33.97;;
62707;SDS011;48769;51.624;5.886;2022-11-20T10:10:28;55.42;;;33.78;;
62707;SDS011;48769;51.624;5.886;2022-11-20T10:26:47;52.05;;;32.42;;
62707;SDS011;48769;51.624;5.886;2022-11-20T10:29:34;51.63;;;32.58;;
62707;SDS011;48769;51.624;5.886;2022-11-20T10:32:04;61.53;;;35.67;;
62707;SDS011;48769;51.624;5.886;2022-11-20T10:34:50;61.83;;;35.58;;
62707;SDS011;48769;51.624;5.886;2022-11-20T10:37:25;58.47;;;34.25;;
62707;SDS011;48769;51.624;5.886;2022-11-20T10:45:43;59.40;;;36.80;;
62707;SDS011;48769;51.624;5.886;2022-11-20T10:48:22;66.50;;;37.38;;
62707;SDS011;48769;51.624;5.886;2022-11-20T10:50:54;64.47;;;38.20;;
62707;SDS011;48769;51.624;5.886;2022-11-20T10:56:52;64.05;;;35.72;;
62707;SDS011;48769;51.624;5.886;2022-11-20T11:02:15;62.05;;;35.55;;
62707;SDS011;48769;51.624;5.886;2022-11-20T11:04:44;62.40;;;35.65;;
62707;SDS011;48769;51.624;5.886;2022-11-20T11:07:15;60.05;;;35.25;;
62707;SDS011;48769;51.624;5.886;2022-11-20T11:09:52;60.95;;;35.80;;
62707;SDS011;48769;51.624;5.886;2022-11-20T11:12:26;67.85;;;37.47;;
62707;SDS011;48769;51.624;5.886;2022-11-20T11:14:56;64.93;;;36.42;;
62707;SDS011;48769;51.624;5.886;2022-11-20T11:22:24;66.57;;;36.92;;
62707;SDS011;48769;51.624;5.886;2022-11-20T11:24:53;67.63;;;38.25;;
62707;SDS011;48769;51.624;5.886;2022-11-20T11:27:19;69.22;;;36.22;;
62707;SDS011;48769;51.624;5.886;2022-11-20T11:29:45;64.43;;;37.65;;
62707;SDS011;48769;51.624;5.886;2022-11-20T11:32:14;69.32;;;37.40;;
62707;SDS011;48769;51.624;5.886;2022-11-20T11:34:42;71.25;;;36.80;;
62707;SDS011;48769;51.624;5.886;2022-11-20T11:37:13;67.50;;;38.95;;
62707;SDS011;48769;51.624;5.886;2022-11-20T11:39:42;79.45;;;37.63;;
62707;SDS011;48769;51.624;5.886;2022-11-20T11:42:11;66.38;;;36.67;;
62707;SDS011;48769;51.624;5.886;2022-11-20T11:44:43;71.43;;;37.23;;
62707;SDS011;48769;51.624;5.886;2022-11-20T11:52:41;69.65;;;37.17;;
62707;SDS011;48769;51.624;5.886;2022-11-20T11:55:14;74.38;;;38.42;;
62707;SDS011;48769;51.624;5.886;2022-11-20T12:00:41;72.75;;;36.80;;
62707;SDS011;48769;51.624;5.886;2022-11-20T12:03:19;67.38;;;35.58;;
62707;SDS011;48769;51.624;5.886;2022-11-20T12:05:49;76.45;;;38.70;;
62707;SDS011;48769;51.624;5.886;2022-11-20T12:11:06;77.68;;;37.70;;
62707;SDS011;48769;51.624;5.886;2022-11-20T12:13:43;71.88;;;37.28;;
62707;SDS011;48769;51.624;5.886;2022-11-20T12:16:14;72.70;;;38.40;;
62707;SDS011;48769;51.624;5.886;2022-11-20T12:18:42;79.47;;;40.70;;
62707;SDS011;48769;51.624;5.886;2022-11-20T12:29:15;95.47;;;42.83;;
62707;SDS011;48769;51.624;5.886;2022-11-20T12:31:48;97.32;;;42.05;;
62707;SDS011;48769;51.624;5.886;2022-11-20T12:34:40;94.68;;;43.33;;
62707;SDS011;48769;51.624;5.886;2022-11-20T12:37:10;96.82;;;44.17;;
62707;SDS011;48769;51.624;5.886;2022-11-20T12:39:50;105.82;;;43.97;;
62707;SDS011;48769;51.624;5.886;2022-11-20T12:49:02;107.80;;;45.50;;
62707;SDS011;48769;51.624;5.886;2022-11-20T12:54:14;114.85;;;46.88;;
62707;SDS011;48769;51.624;5.886;2022-11-20T12:57:12;113.95;;;44.33;;
62707;SDS011;48769;51.624;5.886;2022-11-20T12:59:53;113.07;;;44.65;;
62707;SDS011;48769;51.624;5.886;2022-11-20T13:05:24;113.13;;;43.80;;
62707;SDS011;48769;51.624;5.886;2022-11-20T13:07:57;121.68;;;46.15;;
62707;SDS011;48769;51.624;5.886;2022-11-20T13:13:05;106.55;;;42.25;;
62707;SDS011;48769;51.624;5.886;2022-11-20T13:15:50;115.22;;;43.10;;
62707;SDS011;48769;51.624;5.886;2022-11-20T13:18:18;110.75;;;43.97;;
62707;SDS011;48769;51.624;5.886;2022-11-20T13:20:44;111.68;;;42.55;;
62707;SDS011;48769;51.624;5.886;2022-11-20T13:23:11;107.32;;;44.38;;
62707;SDS011;48769;51.624;5.886;2022-11-20T13:25:48;107.72;;;43.80;;
62707;SDS011;48769;51.624;5.886;2022-11-20T13:30:50;110.28;;;40.40;;
62707;SDS011;48769;51.624;5.886;2022-11-20T13:33:32;112.05;;;41.80;;
62707;SDS011;48769;51.624;5.886;2022-11-20T13:36:04;121.28;;;45.38;;
62707;SDS011;48769;51.624;5.886;2022-11-20T13:38:48;112.10;;;42.50;;
62707;SDS011;48769;51.624;5.886;2022-11-20T13:46:54;120.13;;;39.72;;
62707;SDS011;48769;51.624;5.886;2022-11-20T13:51:48;131.88;;;51.58;;
62707;SDS011;48769;51.624;5.886;2022-11-20T14:02:41;117.85;;;46.20;;
62707;SDS011;48769;51.624;5.886;2022-11-20T14:05:16;112.63;;;49.15;;
62707;SDS011;48769;51.624;5.886;2022-11-20T14:07:46;106.05;;;44.10;;
62707;SDS011;48769;51.624;5.886;2022-11-20T14:10:23;120.18;;;49.50;;
62707;SDS011;48769;51.624;5.886;2022-11-20T14:12:52;125.32;;;51.05;;
62707;SDS011;48769;51.624;5.886;2022-11-20T14:18:11;109.95;;;42.75;;
62707;SDS011;48769;51.624;5.886;2022-11-20T14:20:54;109.00;;;42.03;;
62707;SDS011;48769;51.624;5.886;2022-11-20T14:23:27;132.60;;;57.33;;
62707;SDS011;48769;51.624;5.886;2022-11-20T14:25:53;100.15;;;40.40;;
62707;SDS011;48769;51.624;5.886;2022-11-20T14:28:21;104.72;;;40.13;;
62707;SDS011;48769;51.624;5.886;2022-11-20T14:30:52;108.97;;;44.03;;
62707;SDS011;48769;51.624;5.886;2022-11-20T14:33:19;107.90;;;42.55;;
62707;SDS011;48769;51.624;5.886;2022-11-20T14:35:45;101.63;;;42.90;;
62707;SDS011;48769;51.624;5.886;2022-11-20T14:38:17;111.22;;;41.65;;
62707;SDS011;48769;51.624;5.886;2022-11-20T14:40:46;126.93;;;61.55;;
62707;SDS011;48769;51.624;5.886;2022-11-20T14:43:30;110.10;;;43.33;;
62707;SDS011;48769;51.624;5.886;2022-11-20T14:45:59;112.15;;;43.70;;
62707;SDS011;48769;51.624;5.886;2022-11-20T14:48:29;112.70;;;44.13;;
62707;SDS011;48769;51.624;5.886;2022-11-20T14:50:57;106.68;;;42.20;;
62707;SDS011;48769;51.624;5.886;2022-11-20T14:53:23;108.85;;;42.72;;
62707;SDS011;48769;51.624;5.886;2022-11-20T14:56:00;118.38;;;44.10;;
62707;SDS011;48769;51.624;5.886;2022-11-20T14:58:28;110.97;;;46.78;;
62707;SDS011;48769;51.624;5.886;2022-11-20T15:00:57;103.15;;;40.92;;
62707;SDS011;48769;51.624;5.886;2022-11-20T15:03:35;103.90;;;42.75;;
62707;SDS011;48769;51.624;5.886;2022-11-20T15:06:02;110.00;;;41.88;;
62707;SDS011;48769;51.624;5.886;2022-11-20T15:08:28;98.72;;;41.35;;
62707;SDS011;48769;51.624;5.886;2022-11-20T15:10:54;118.57;;;44.15;;
62707;SDS011;48769;51.624;5.886;2022-11-20T15:13:29;104.65;;;42.50;;
62707;SDS011;48769;51.624;5.886;2022-11-20T15:15:57;119.13;;;45.75;;
62707;SDS011;48769;51.624;5.886;2022-11-20T15:18:27;112.63;;;44.50;;
62707;SDS011;48769;51.624;5.886;2022-11-20T15:20:55;118.50;;;45.08;;
62707;SDS011;48769;51.624;5.886;2022-11-20T15:23:22;111.05;;;45.15;;
62707;SDS011;48769;51.624;5.886;2022-11-20T15:25:48;113.32;;;43.00;;
62707;SDS011;48769;51.624;5.886;2022-11-20T15:28:16;109.90;;;43.08;;
62707;SDS011;48769;51.624;5.886;2022-11-20T15:30:46;125.40;;;48.45;;
62707;SDS011;48769;51.624;5.886;2022-11-20T15:33:13;122.93;;;46.53;;
62707;SDS011;48769;51.624;5.886;2022-11-20T15:35:38;134.13;;;46.60;;
62707;SDS011;48769;51.624;5.886;2022-11-20T15:38:04;134.18;;;49.45;;
62707;SDS011;48769;51.624;5.886;2022-11-20T15:40:29;137.98;;;47.80;;
62707;SDS011;48769;51.624;5.886;2022-11-20T15:42:54;129.10;;;52.03;;
62707;SDS011;48769;51.624;5.886;2022-11-20T15:45:50;171.05;;;75.97;;
62707;SDS011;48769;51.624;5.886;2022-11-20T15:48:20;145.23;;;67.75;;
62707;SDS011;48769;51.624;5.886;2022-11-20T15:53:21;127.75;;;50.17;;
62707;SDS011;48769;51.624;5.886;2022-11-20T15:55:47;127.70;;;47.55;;
62707;SDS011;48769;51.624;5.886;2022-11-20T15:58:12;119.53;;;45.13;;
62707;SDS011;48769;51.624;5.886;2022-11-20T16:00:37;137.82;;;49.95;;
62707;SDS011;48769;51.624;5.886;2022-11-20T16:03:03;117.18;;;44.90;;
62707;SDS011;48769;51.624;5.886;2022-11-20T16:05:28;114.82;;;44.67;;
62707;SDS011;48769;51.624;5.886;2022-11-20T16:07:54;129.90;;;47.00;;
62707;SDS011;48769;51.624;5.886;2022-11-20T16:10:19;120.20;;;47.42;;
62707;SDS011;48769;51.624;5.886;2022-11-20T16:12:44;124.15;;;47.40;;
62707;SDS011;48769;51.624;5.886;2022-11-20T16:15:39;131.68;;;46.58;;
62707;SDS011;48769;51.624;5.886;2022-11-20T16:18:11;138.52;;;46.47;;
62707;SDS011;48769;51.624;5.886;2022-11-20T16:20:38;127.70;;;46.08;;
62707;SDS011;48769;51.624;5.886;2022-11-20T16:23:04;150.23;;;47.92;;
62707;SDS011;48769;51.624;5.886;2022-11-20T16:25:30;136.48;;;47.78;;